Time;durP1;ratioP1;P1;durP2;ratioP2;P2;SDS_P1;SDS_P2;PMS_P1;PMS_P2;Temp;Humidity;BMP_temperature;BMP_pressure;BME280_temperature;BME280_humidity;BME280_pressure;Samples;Min_cycle;Max_cycle;Signal;HPM_P1;HPM_P2
2022/03/02 00:00:48;;;;;;;19.20;8.30;;;7.10;40.70;;;;;;4961915;28;20523;-43
2022/03/02 00:03:16;;;;;;;17.42;8.55;;;7.10;40.50;;;;;;4959746;28;20054;-44
2022/03/02 00:05:43;;;;;;;15.23;8.10;;;7.10;40.60;;;;;;4963353;28;20427;-43
2022/03/02 00:08:11;;;;;;;19.58;8.20;;;7.20;40.60;;;;;;4963600;28;20054;-45
2022/03/02 00:10:40;;;;;;;16.02;8.10;;;7.10;40.50;;;;;;4962225;28;20050;-44
2022/03/02 00:13:08;;;;;;;13.18;7.45;;;7.20;40.60;;;;;;4959145;28;21578;-43
2022/03/02 00:15:35;;;;;;;15.23;8.25;;;7.20;40.50;;;;;;4962846;28;20059;-44
2022/03/02 00:18:03;;;;;;;15.00;8.60;;;7.20;40.50;;;;;;4961611;28;20047;-44
2022/03/02 00:20:30;;;;;;;17.08;8.73;;;7.20;40.60;;;;;;4961827;28;20492;-47
2022/03/02 00:22:58;;;;;;;15.02;7.40;;;7.20;40.60;;;;;;4960058;28;20047;-47
2022/03/02 00:25:25;;;;;;;13.93;7.50;;;7.20;40.70;;;;;;4962496;28;20051;-42
2022/03/02 00:27:54;;;;;;;15.25;8.30;;;7.20;40.80;;;;;;4964636;28;20066;-43
2022/03/02 00:30:28;;;;;;;15.82;7.97;;;7.20;40.90;;;;;;4962448;28;20518;-48
2022/03/02 00:32:55;;;;;;;16.08;7.90;;;7.20;40.80;;;;;;4958358;28;20053;-45
2022/03/02 00:35:23;;;;;;;12.63;7.20;;;7.20;40.90;;;;;;4962381;28;20496;-48
2022/03/02 00:37:50;;;;;;;19.23;9.05;;;7.20;40.80;;;;;;4962687;28;20066;-45
2022/03/02 00:40:18;;;;;;;15.20;7.93;;;7.20;40.70;;;;;;4962736;28;20063;-45
2022/03/02 00:42:46;;;;;;;14.60;7.65;;;7.20;40.70;;;;;;4961452;28;20062;-42
2022/03/02 00:45:15;;;;;;;15.77;8.10;;;7.20;40.80;;;;;;4961149;28;20542;-43
2022/03/02 00:47:43;;;;;;;15.85;8.70;;;7.20;40.80;;;;;;4962509;28;20055;-46
2022/03/02 00:50:12;;;;;;;20.70;8.73;;;7.20;40.70;;;;;;4960624;28;20058;-45
2022/03/02 00:52:41;;;;;;;15.85;8.20;;;7.20;40.70;;;;;;4958734;28;20633;-45
2022/03/02 00:55:08;;;;;;;18.00;8.38;;;7.20;40.60;;;;;;4962092;28;20050;-45
2022/03/02 00:57:36;;;;;;;19.27;8.45;;;7.20;40.50;;;;;;4962793;28;20435;-45
2022/03/02 01:00:05;;;;;;;14.90;8.10;;;7.30;40.60;;;;;;4960735;28;20054;-45
2022/03/02 01:02:33;;;;;;;12.68;7.53;;;7.20;40.70;;;;;;4961275;28;20055;-45
2022/03/02 01:05:01;;;;;;;13.50;7.47;;;7.30;40.80;;;;;;4959372;28;20054;-43
2022/03/02 01:07:29;;;;;;;15.18;8.38;;;7.30;40.80;;;;;;4963378;28;20423;-45
2022/03/02 01:09:56;;;;;;;17.17;8.93;;;7.30;40.80;;;;;;4962757;28;20427;-46
2022/03/02 01:12:24;;;;;;;14.93;7.80;;;7.30;40.70;;;;;;4960070;28;20054;-44
2022/03/02 01:14:52;;;;;;;14.57;7.68;;;7.30;40.70;;;;;;4958965;28;21672;-44
2022/03/02 01:17:20;;;;;;;21.73;8.80;;;7.30;40.70;;;;;;4961903;28;20531;-45
2022/03/02 01:19:50;;;;;;;16.63;7.55;;;7.30;40.60;;;;;;4960898;28;20062;-45
2022/03/02 01:22:19;;;;;;;16.52;8.38;;;7.30;40.60;;;;;;4962881;28;20057;-42
2022/03/02 01:24:47;;;;;;;15.65;8.10;;;7.30;40.50;;;;;;4959068;28;20055;-47
2022/03/02 01:27:14;;;;;;;12.55;7.45;;;7.30;40.50;;;;;;4962638;28;20065;-46
2022/03/02 01:29:42;;;;;;;18.15;7.60;;;7.30;40.60;;;;;;4961507;28;20520;-43
2022/03/02 01:32:11;;;;;;;18.02;9.32;;;7.20;40.60;;;;;;4959827;28;20065;-44
2022/03/02 01:34:39;;;;;;;15.20;7.45;;;7.20;40.40;;;;;;4957702;28;20062;-48
2022/03/02 01:37:08;;;;;;;13.55;7.20;;;7.20;40.40;;;;;;4962157;28;21177;-45
2022/03/02 01:39:35;;;;;;;16.65;8.43;;;7.10;40.50;;;;;;4960843;28;20051;-46
2022/03/02 01:42:05;;;;;;;15.90;7.68;;;7.10;40.60;;;;;;4962328;28;20055;-45
2022/03/02 01:44:33;;;;;;;15.70;8.50;;;7.10;40.70;;;;;;4958511;28;20049;-46
2022/03/02 01:47:01;;;;;;;15.05;8.13;;;7.10;40.80;;;;;;4960975;28;20516;-43
2022/03/02 01:49:28;;;;;;;12.30;7.18;;;7.00;40.90;;;;;;4961270;28;20055;-45
2022/03/02 01:51:56;;;;;;;14.88;8.35;;;7.00;41.00;;;;;;4961627;28;20070;-43
2022/03/02 01:54:25;;;;;;;20.52;9.45;;;6.90;41.00;;;;;;4957353;28;20720;-45
2022/03/02 01:56:53;;;;;;;19.58;9.85;;;6.90;40.90;;;;;;4961009;28;20074;-45
2022/03/02 01:59:21;;;;;;;16.88;8.65;;;6.90;40.90;;;;;;4961639;28;20046;-48
2022/03/02 02:01:49;;;;;;;17.17;9.55;;;6.80;40.80;;;;;;4959537;28;20088;-45
2022/03/02 02:04:16;;;;;;;16.33;8.20;;;6.80;40.80;;;;;;4957524;28;20054;-46
2022/03/02 02:06:44;;;;;;;18.05;8.57;;;6.70;40.80;;;;;;4960661;28;20059;-44
2022/03/02 02:09:11;;;;;;;14.90;8.15;;;6.70;40.90;;;;;;4961809;28;20078;-44
2022/03/02 02:11:41;;;;;;;13.18;7.65;;;6.70;41.00;;;;;;4958205;28;20385;-44
2022/03/02 02:14:08;;;;;;;20.25;9.85;;;6.70;41.20;;;;;;4957233;28;20058;-46
2022/03/02 02:16:36;;;;;;;17.58;8.18;;;6.70;41.30;;;;;;4959420;28;20527;-44
2022/03/02 02:19:04;;;;;;;19.13;8.27;;;6.70;41.20;;;;;;4957585;28;20492;-44
2022/03/02 02:21:32;;;;;;;19.17;7.45;;;6.70;41.30;;;;;;4962171;28;20054;-42
2022/03/02 02:24:00;;;;;;;16.77;8.98;;;6.60;41.40;;;;;;4956615;28;20058;-45
2022/03/02 02:26:28;;;;;;;14.95;7.38;;;6.70;41.50;;;;;;4958510;28;20518;-46
2022/03/02 02:28:56;;;;;;;15.10;7.72;;;6.70;41.60;;;;;;4960653;28;20063;-44
2022/03/02 02:31:24;;;;;;;14.45;8.48;;;6.70;41.60;;;;;;4960007;28;20054;-47
2022/03/02 02:33:52;;;;;;;13.93;7.63;;;6.70;41.60;;;;;;4954454;28;20054;-45
2022/03/02 02:36:20;;;;;;;16.48;7.78;;;6.70;41.50;;;;;;4961054;28;20063;-47
2022/03/02 02:38:48;;;;;;;17.25;7.68;;;6.80;41.60;;;;;;4954457;28;20491;-46
2022/03/02 02:41:16;;;;;;;16.40;8.07;;;6.80;41.50;;;;;;4959420;28;20978;-46
2022/03/02 02:43:44;;;;;;;14.45;7.68;;;6.80;41.60;;;;;;4958106;28;20054;-46
2022/03/02 02:46:12;;;;;;;18.70;8.75;;;6.80;41.60;;;;;;4957718;28;20059;-45
2022/03/02 02:48:40;;;;;;;18.42;9.65;;;6.80;41.60;;;;;;4958375;28;20574;-44
2022/03/02 02:51:08;;;;;;;14.20;8.05;;;6.80;41.60;;;;;;4958612;28;20532;-45
2022/03/02 02:53:36;;;;;;;19.63;8.75;;;6.80;41.60;;;;;;4953960;28;20047;-46
2022/03/02 02:56:05;;;;;;;15.95;9.18;;;6.80;41.60;;;;;;4959336;28;20061;-47
2022/03/02 02:58:33;;;;;;;18.35;8.80;;;6.80;41.60;;;;;;4959780;28;20059;-45
2022/03/02 03:01:00;;;;;;;17.13;8.85;;;6.90;41.60;;;;;;4958633;28;20455;-49
2022/03/02 03:03:28;;;;;;;16.40;9.15;;;6.90;41.60;;;;;;4957121;28;20055;-47
2022/03/02 03:05:56;;;;;;;24.42;8.65;;;6.90;41.60;;;;;;4959641;28;20062;-45
2022/03/02 03:08:23;;;;;;;13.45;7.35;;;6.90;41.60;;;;;;4962133;28;20062;-47
2022/03/02 03:10:51;;;;;;;12.05;7.05;;;6.90;41.70;;;;;;4961278;28;20059;-46
2022/03/02 03:13:20;;;;;;;19.80;8.95;;;6.80;41.60;;;;;;4956594;28;20143;-42
2022/03/02 03:15:47;;;;;;;17.15;8.38;;;6.90;41.70;;;;;;4958902;28;20058;-46
2022/03/02 03:18:15;;;;;;;17.00;8.68;;;6.90;41.70;;;;;;4959175;28;20542;-45
2022/03/02 03:20:42;;;;;;;17.20;8.57;;;6.90;41.80;;;;;;4959160;28;20051;-44
2022/03/02 03:23:11;;;;;;;14.70;7.15;;;6.90;41.70;;;;;;4958169;28;20059;-44
2022/03/02 03:25:38;;;;;;;13.90;7.63;;;6.90;41.80;;;;;;4959306;28;20042;-47
2022/03/02 03:28:06;;;;;;;14.55;7.85;;;6.90;41.80;;;;;;4958084;28;20054;-44
2022/03/02 03:30:35;;;;;;;14.00;7.88;;;6.90;41.80;;;;;;4960433;28;20050;-46
2022/03/02 03:33:04;;;;;;;17.95;8.05;;;6.90;41.90;;;;;;4955945;28;20054;-45
2022/03/02 03:35:32;;;;;;;16.50;8.65;;;6.90;41.90;;;;;;4959386;28;20058;-43
2022/03/02 03:37:59;;;;;;;14.23;7.90;;;6.80;41.90;;;;;;4959386;28;20059;-44
2022/03/02 03:40:27;;;;;;;14.98;9.18;;;6.90;42.00;;;;;;4960639;28;20102;-45
2022/03/02 03:42:57;;;;;;;16.45;8.38;;;6.90;42.10;;;;;;4957574;28;20055;-46
2022/03/02 03:45:25;;;;;;;17.70;8.75;;;6.80;42.10;;;;;;4958008;28;20508;-46
2022/03/02 03:47:54;;;;;;;14.77;8.68;;;6.80;42.10;;;;;;4961254;28;20523;-44
2022/03/02 03:50:21;;;;;;;15.77;8.23;;;6.90;42.70;;;;;;4958712;28;20058;-43
2022/03/02 03:52:49;;;;;;;14.70;8.27;;;6.90;42.20;;;;;;4955485;28;20054;-46
2022/03/02 03:55:17;;;;;;;16.67;9.07;;;6.90;42.30;;;;;;4955651;28;20047;-44
2022/03/02 03:57:44;;;;;;;14.38;7.78;;;6.80;42.30;;;;;;4958466;28;20054;-42
2022/03/02 04:00:15;;;;;;;19.30;9.45;;;6.80;42.20;;;;;;4958715;28;21539;-42
2022/03/02 04:02:43;;;;;;;18.42;10.15;;;6.80;42.20;;;;;;4958758;28;20074;-42
2022/03/02 04:05:12;;;;;;;21.98;10.43;;;6.80;42.30;;;;;;4957525;28;20514;-44
2022/03/02 04:07:40;;;;;;;14.30;8.18;;;6.80;42.30;;;;;;4960808;28;20062;-44
2022/03/02 04:10:10;;;;;;;18.00;9.00;;;6.80;42.30;;;;;;4960713;28;20055;-44
2022/03/02 04:12:38;;;;;;;13.23;8.02;;;6.80;42.50;;;;;;4957073;28;20062;-44
2022/03/02 04:15:07;;;;;;;16.38;8.23;;;6.80;42.60;;;;;;4957641;28;20559;-49
2022/03/02 04:17:34;;;;;;;15.38;8.32;;;6.80;42.60;;;;;;4959201;28;20065;-46
2022/03/02 04:20:02;;;;;;;17.98;9.18;;;6.80;42.70;;;;;;4958503;28;20065;-45
2022/03/02 04:22:31;;;;;;;16.95;8.85;;;6.80;42.80;;;;;;4959438;28;20047;-44
2022/03/02 04:24:58;;;;;;;16.85;8.63;;;6.80;42.80;;;;;;4961173;28;20054;-44
2022/03/02 04:27:26;;;;;;;15.50;8.30;;;6.80;42.80;;;;;;4964859;28;20055;-46
2022/03/02 04:29:54;;;;;;;18.02;9.15;;;6.80;42.90;;;;;;4962148;28;20062;-45
2022/03/02 04:32:21;;;;;;;15.10;8.40;;;6.80;42.80;;;;;;4961220;28;20420;-46
2022/03/02 04:34:49;;;;;;;16.90;8.60;;;6.80;42.80;;;;;;4957568;28;20050;-44
2022/03/02 04:37:16;;;;;;;15.25;7.80;;;6.80;42.80;;;;;;4962981;28;20065;-42
2022/03/02 04:39:45;;;;;;;13.10;8.15;;;6.80;42.80;;;;;;4959534;28;20051;-44
2022/03/02 04:42:13;;;;;;;24.27;8.60;;;6.80;42.90;;;;;;4959081;28;20059;-44
2022/03/02 04:44:41;;;;;;;16.48;8.10;;;6.80;42.90;;;;;;4956545;28;20058;-48
2022/03/02 04:47:08;;;;;;;16.48;8.18;;;6.80;43.00;;;;;;4959307;28;20865;-44
2022/03/02 04:49:36;;;;;;;18.88;9.23;;;6.80;43.00;;;;;;4957221;28;20101;-44
2022/03/02 04:52:04;;;;;;;16.67;9.30;;;6.80;43.10;;;;;;4959936;28;20706;-45
2022/03/02 04:57:18;;;;;;;19.80;9.25;;;6.80;43.10;;;;;;4969953;28;20063;-45
2022/03/02 04:59:46;;;;;;;16.52;8.80;;;6.80;43.10;;;;;;4964215;28;20958;-44
2022/03/02 05:02:13;;;;;;;14.90;8.43;;;6.80;43.10;;;;;;4964455;28;20062;-44
2022/03/02 05:04:41;;;;;;;13.80;7.97;;;6.80;43.10;;;;;;4958575;28;20500;-43
2022/03/02 05:07:08;;;;;;;18.08;9.05;;;6.90;43.20;;;;;;4962230;28;20062;-46
2022/03/02 05:09:36;;;;;;;16.00;8.48;;;6.80;43.10;;;;;;4961720;28;20054;-45
2022/03/02 05:12:04;;;;;;;14.68;7.82;;;6.80;43.10;;;;;;4960325;28;20054;-43
2022/03/02 05:14:33;;;;;;;19.40;9.68;;;6.80;43.00;;;;;;4958318;28;20500;-45
2022/03/02 05:17:00;;;;;;;20.92;10.00;;;6.90;43.10;;;;;;4952916;28;20136;-43
2022/03/02 05:19:28;;;;;;;20.50;9.80;;;6.80;43.10;;;;;;4962266;28;20046;-46
2022/03/02 05:21:55;;;;;;;17.13;8.80;;;6.80;43.10;;;;;;4959540;28;20594;-45
2022/03/02 05:24:24;;;;;;;17.15;8.38;;;6.80;43.20;;;;;;4960528;28;20062;-47
2022/03/02 05:26:51;;;;;;;16.05;9.27;;;6.80;43.30;;;;;;4962308;28;20063;-43
2022/03/02 05:29:19;;;;;;;19.98;9.52;;;6.80;43.40;;;;;;4960455;28;20050;-46
2022/03/02 05:31:47;;;;;;;16.63;9.00;;;6.80;43.40;;;;;;4960694;28;20058;-43
2022/03/02 05:34:15;;;;;;;18.48;9.52;;;6.80;43.40;;;;;;4955639;28;20055;-44
2022/03/02 05:36:43;;;;;;;15.38;7.90;;;6.80;43.40;;;;;;4959463;28;20054;-45
2022/03/02 05:39:10;;;;;;;16.08;9.00;;;6.80;43.40;;;;;;4961215;28;20062;-42
2022/03/02 05:41:38;;;;;;;15.40;7.68;;;6.80;43.90;;;;;;4961180;28;20054;-44
2022/03/02 05:44:07;;;;;;;15.73;8.00;;;6.70;43.40;;;;;;4958400;28;20066;-44
2022/03/02 05:46:35;;;;;;;20.00;9.40;;;6.70;43.50;;;;;;4960729;28;20063;-45
2022/03/02 05:49:08;;;;;;;13.55;7.68;;;6.70;43.60;;;;;;4959061;28;20065;-45
2022/03/02 05:51:36;;;;;;;15.15;7.72;;;6.70;43.60;;;;;;4961110;28;20051;-44
2022/03/02 05:54:04;;;;;;;16.55;8.63;;;6.70;43.60;;;;;;4956727;28;20462;-44
2022/03/02 05:56:32;;;;;;;14.57;7.65;;;6.70;43.50;;;;;;4960667;28;20073;-45
2022/03/02 05:59:00;;;;;;;17.17;8.63;;;6.70;43.50;;;;;;4960742;28;20503;-45
2022/03/02 06:01:27;;;;;;;16.95;8.68;;;6.70;43.50;;;;;;4960624;28;20054;-44
2022/03/02 06:03:55;;;;;;;16.05;8.75;;;6.70;43.50;;;;;;4958890;28;20463;-44
2022/03/02 06:06:24;;;;;;;17.20;9.57;;;6.70;43.70;;;;;;4960367;28;20500;-42
2022/03/02 06:08:51;;;;;;;14.70;8.00;;;6.70;44.20;;;;;;4960082;28;20054;-43
2022/03/02 06:11:20;;;;;;;15.75;8.50;;;6.70;43.70;;;;;;4960876;28;20051;-45
2022/03/02 06:13:48;;;;;;;16.33;8.75;;;6.70;43.70;;;;;;4957868;28;20353;-43
2022/03/02 06:16:16;;;;;;;16.73;8.50;;;6.80;43.80;;;;;;4959739;28;20047;-45
2022/03/02 06:18:44;;;;;;;15.13;8.40;;;6.70;43.70;;;;;;4955407;28;20375;-45
2022/03/02 06:21:17;;;;;;;19.83;8.88;;;6.70;43.70;;;;;;4960088;28;21274;-48
2022/03/02 06:23:47;;;;;;;18.15;8.90;;;6.70;43.60;;;;;;4956709;28;20059;-46
2022/03/02 06:26:15;;;;;;;18.00;9.75;;;6.70;43.60;;;;;;4953215;28;20051;-43
2022/03/02 06:28:42;;;;;;;16.30;9.13;;;6.70;43.60;;;;;;4955342;28;20407;-43
2022/03/02 06:31:10;;;;;;;19.40;9.85;;;6.70;43.60;;;;;;4958338;28;20495;-44
2022/03/02 06:33:37;;;;;;;18.95;9.40;;;6.70;43.50;;;;;;4954612;28;20055;-43
2022/03/02 06:36:05;;;;;;;17.67;9.70;;;6.70;43.50;;;;;;4952301;28;20070;-44
2022/03/02 06:38:33;;;;;;;20.85;10.63;;;6.70;43.60;;;;;;4954529;28;20050;-43
2022/03/02 06:41:05;;;;;;;19.88;9.90;;;6.70;43.70;;;;;;4960016;28;20066;-46
2022/03/02 06:43:35;;;;;;;15.80;8.98;;;6.70;43.70;;;;;;4954870;28;20051;-45
2022/03/02 06:46:08;;;;;;;17.60;8.10;;;6.70;43.70;;;;;;4958239;28;20137;-45
2022/03/02 06:48:43;;;;;;;16.08;8.32;;;6.70;43.80;;;;;;4957006;28;20389;-44
2022/03/02 06:51:15;;;;;;;16.63;9.23;;;6.70;43.90;;;;;;4959787;28;20301;-45
2022/03/02 06:53:46;;;;;;;18.50;9.75;;;6.70;43.80;;;;;;4959730;28;20066;-46
2022/03/02 06:56:17;;;;;;;14.48;9.18;;;6.70;43.70;;;;;;4960942;28;20587;-42
2022/03/02 06:58:51;;;;;;;17.67;9.15;;;6.70;43.70;;;;;;4959861;28;20500;-44
2022/03/02 07:01:26;;;;;;;15.60;8.45;;;6.70;43.80;;;;;;4958212;28;20594;-44
2022/03/02 07:03:57;;;;;;;14.98;8.07;;;6.70;43.70;;;;;;4959984;28;20415;-44
2022/03/02 07:06:26;;;;;;;13.98;7.50;;;6.70;43.80;;;;;;4960070;28;20051;-44
2022/03/02 07:08:54;;;;;;;14.15;7.72;;;6.70;43.80;;;;;;4961085;28;20055;-43
2022/03/02 07:11:25;;;;;;;16.58;8.18;;;6.70;43.90;;;;;;4960251;28;20415;-47
2022/03/02 07:13:53;;;;;;;15.93;8.80;;;6.70;44.00;;;;;;4959499;28;20062;-44
2022/03/02 07:16:22;;;;;;;17.70;9.35;;;6.70;44.00;;;;;;4961351;28;20066;-42
2022/03/02 07:18:51;;;;;;;20.13;10.02;;;6.70;44.00;;;;;;4958515;28;20053;-45
2022/03/02 07:21:22;;;;;;;15.15;8.40;;;6.70;43.90;;;;;;4959271;28;20055;-42
2022/03/02 07:23:55;;;;;;;14.32;7.97;;;6.80;44.00;;;;;;4956363;28;20058;-43
2022/03/02 07:26:27;;;;;;;16.73;9.05;;;6.80;44.00;;;;;;4960377;28;20408;-47
2022/03/02 07:28:56;;;;;;;14.25;8.35;;;6.80;44.00;;;;;;4958548;28;20065;-43
2022/03/02 07:31:25;;;;;;;15.68;8.48;;;6.90;44.00;;;;;;4959974;28;20062;-45
2022/03/02 07:33:53;;;;;;;15.18;8.00;;;6.90;43.90;;;;;;4957028;28;20058;-44
2022/03/02 07:36:22;;;;;;;19.45;8.70;;;6.90;43.90;;;;;;4957579;28;20110;-42
2022/03/02 07:38:50;;;;;;;19.55;9.07;;;6.90;43.90;;;;;;4960938;28;20065;-45
2022/03/02 07:41:18;;;;;;;16.23;8.60;;;7.00;44.10;;;;;;4959301;28;20058;-44
2022/03/02 07:43:50;;;;;;;15.40;9.38;;;7.00;44.10;;;;;;4958223;28;20058;-44
2022/03/02 07:46:18;;;;;;;17.95;9.77;;;7.10;44.60;;;;;;4959782;28;20055;-45
2022/03/02 07:48:46;;;;;;;15.77;9.05;;;7.10;44.80;;;;;;4957171;28;20059;-45
2022/03/02 07:51:14;;;;;;;18.58;9.45;;;7.10;44.80;;;;;;4958398;28;20059;-45
2022/03/02 07:53:45;;;;;;;18.70;9.85;;;7.20;44.60;;;;;;4956099;28;20055;-42
2022/03/02 07:56:14;;;;;;;17.25;9.75;;;7.20;44.60;;;;;;4958646;28;20051;-43
2022/03/02 07:58:43;;;;;;;20.13;10.15;;;7.20;44.30;;;;;;4959024;28;20082;-45
2022/03/02 08:01:18;;;;;;;18.65;9.65;;;7.30;44.30;;;;;;4959847;28;20054;-48
2022/03/02 08:03:45;;;;;;;17.60;9.98;;;7.30;44.10;;;;;;4961114;28;20546;-47
2022/03/02 08:06:14;;;;;;;21.77;9.63;;;7.30;44.10;;;;;;4963499;28;20073;-42
2022/03/02 08:08:44;;;;;;;17.70;10.27;;;7.30;43.90;;;;;;4962079;28;20050;-42
2022/03/02 08:11:13;;;;;;;17.10;8.77;;;7.30;43.80;;;;;;4964058;28;20058;-44
2022/03/02 08:13:41;;;;;;;19.58;9.25;;;7.40;43.70;;;;;;4962276;28;20058;-45
2022/03/02 08:16:13;;;;;;;24.77;10.05;;;7.30;43.70;;;;;;4961141;28;20054;-45
2022/03/02 08:18:40;;;;;;;32.40;13.93;;;7.40;43.60;;;;;;4958373;28;20055;-44
2022/03/02 08:21:11;;;;;;;43.65;19.25;;;7.40;43.60;;;;;;4957325;28;20518;-48
2022/03/02 08:23:43;;;;;;;23.50;11.38;;;7.40;43.70;;;;;;4964840;28;20058;-48
2022/03/02 08:26:13;;;;;;;19.08;9.85;;;7.40;43.70;;;;;;4963955;28;20062;-41
2022/03/02 08:28:45;;;;;;;18.10;9.00;;;7.50;43.60;;;;;;4963704;28;20062;-47
2022/03/02 08:31:15;;;;;;;17.38;7.78;;;7.50;43.50;;;;;;4962918;28;20051;-45
2022/03/02 08:33:44;;;;;;;15.32;8.48;;;7.50;43.50;;;;;;4961723;28;20065;-46
2022/03/02 08:36:12;;;;;;;17.83;9.10;;;7.60;43.60;;;;;;4963640;28;20293;-44
2022/03/02 08:38:44;;;;;;;16.58;8.35;;;7.60;44.10;;;;;;4963485;28;20409;-47
2022/03/02 08:41:12;;;;;;;15.77;8.05;;;7.60;43.60;;;;;;4963428;28;20913;-44
2022/03/02 08:43:40;;;;;;;16.48;8.45;;;7.60;43.40;;;;;;4963384;28;20058;-43
2022/03/02 08:46:08;;;;;;;17.23;8.65;;;7.70;43.60;;;;;;4962053;28;20080;-43
2022/03/02 08:48:37;;;;;;;37.22;16.58;;;7.70;43.70;;;;;;4960394;28;20054;-49
2022/03/02 08:51:07;;;;;;;33.65;14.57;;;7.70;43.50;;;;;;4962849;28;20058;-43
2022/03/02 08:53:37;;;;;;;36.85;15.98;;;7.70;43.40;;;;;;4960167;28;20050;-45
2022/03/02 08:56:06;;;;;;;22.83;11.88;;;7.80;43.50;;;;;;4962499;28;20062;-45
2022/03/02 08:58:34;;;;;;;21.83;10.73;;;7.80;43.60;;;;;;4962916;28;20051;-42
2022/03/02 09:01:02;;;;;;;18.75;9.38;;;7.80;43.70;;;;;;4961196;28;20058;-47
2022/03/02 09:03:34;;;;;;;15.88;9.05;;;7.90;43.70;;;;;;4960732;28;20059;-47
2022/03/02 09:06:08;;;;;;;17.23;8.93;;;7.90;43.80;;;;;;4963200;28;20054;-44
2022/03/02 09:08:36;;;;;;;12.93;7.70;;;7.90;43.70;;;;;;4961540;28;20407;-44
2022/03/02 09:11:03;;;;;;;13.88;7.43;;;8.00;43.70;;;;;;4961406;28;20058;-43
2022/03/02 09:13:31;;;;;;;13.75;7.75;;;8.00;43.60;;;;;;4962823;28;20062;-46
2022/03/02 09:15:59;;;;;;;13.02;8.00;;;8.10;43.80;;;;;;4960567;28;20055;-47
2022/03/02 09:18:29;;;;;;;11.93;7.00;;;8.10;43.80;;;;;;4959748;28;20066;-45
2022/03/02 09:21:01;;;;;;;15.57;7.75;;;8.10;43.40;;;;;;4959795;28;20055;-46
2022/03/02 09:23:32;;;;;;;17.92;9.48;;;8.20;43.30;;;;;;4960068;28;20054;-45
2022/03/02 09:26:04;;;;;;;29.50;13.55;;;8.20;43.10;;;;;;4960825;28;20051;-44
2022/03/02 09:28:34;;;;;;;14.75;7.88;;;8.30;42.90;;;;;;4958343;28;20061;-42
2022/03/02 09:31:03;;;;;;;20.05;8.43;;;8.30;42.90;;;;;;4958299;28;20077;-42
2022/03/02 09:33:34;;;;;;;12.02;6.50;;;8.40;43.10;;;;;;4957466;28;20210;-44
2022/03/02 09:36:04;;;;;;;13.40;7.45;;;8.50;42.40;;;;;;4960581;28;20066;-42
2022/03/02 09:38:34;;;;;;;20.83;7.57;;;8.60;42.30;;;;;;4959878;28;20059;-49
2022/03/02 09:41:06;;;;;;;12.95;7.18;;;8.60;42.30;;;;;;4959684;28;20062;-45
2022/03/02 09:43:35;;;;;;;14.77;7.13;;;8.70;42.00;;;;;;4959277;28;20485;-47
2022/03/02 09:46:06;;;;;;;13.52;7.03;;;8.80;42.00;;;;;;4961429;28;20057;-43
2022/03/02 09:48:35;;;;;;;14.18;7.13;;;8.80;41.60;;;;;;4957156;28;20047;-45
2022/03/02 09:51:06;;;;;;;14.63;7.57;;;8.90;41.30;;;;;;4960120;28;20057;-45
2022/03/02 09:53:37;;;;;;;15.88;8.45;;;9.00;41.10;;;;;;4959109;28;20054;-48
2022/03/02 09:56:07;;;;;;;12.00;6.72;;;9.00;41.10;;;;;;4962080;28;20059;-44
2022/03/02 09:58:39;;;;;;;10.68;6.57;;;9.10;41.10;;;;;;4958577;28;20054;-47
2022/03/02 10:01:15;;;;;;;15.02;6.97;;;9.10;40.70;;;;;;4962477;28;20073;-45
2022/03/02 10:03:47;;;;;;;11.52;6.47;;;9.20;40.50;;;;;;4959088;28;20058;-45
2022/03/02 10:06:18;;;;;;;12.43;6.63;;;9.30;40.30;;;;;;4961560;28;20054;-47
2022/03/02 10:08:49;;;;;;;13.80;7.00;;;9.30;40.10;;;;;;4959809;28;20058;-45
2022/03/02 10:11:20;;;;;;;14.32;7.07;;;9.40;40.60;;;;;;4961592;28;20055;-43
2022/03/02 10:13:48;;;;;;;14.65;6.78;;;9.40;41.30;;;;;;4959222;28;20065;-45
2022/03/02 10:16:22;;;;;;;12.20;6.95;;;9.50;41.40;;;;;;4960289;28;20055;-43
2022/03/02 10:18:58;;;;;;;12.13;6.85;;;9.50;41.20;;;;;;4953191;28;20061;-45
2022/03/02 10:21:30;;;;;;;13.88;7.10;;;9.60;41.40;;;;;;4961060;28;20451;-45
2022/03/02 10:24:00;;;;;;;28.23;12.27;;;9.60;41.20;;;;;;4958936;28;20057;-43
2022/03/02 10:26:30;;;;;;;23.67;10.02;;;9.70;41.20;;;;;;4961979;28;20067;-44
2022/03/02 10:29:02;;;;;;;14.77;8.25;;;9.70;41.30;;;;;;4959235;28;20062;-42
2022/03/02 10:31:46;;;;;;;17.30;8.35;;;9.80;41.10;;;;;;4959564;28;20058;-46
2022/03/02 10:34:38;;;;;;;20.50;8.85;;;9.80;40.70;;;;;;4954673;28;20062;-43
2022/03/02 10:37:23;;;;;;;15.23;7.38;;;9.90;40.50;;;;;;4967965;28;20059;-43
2022/03/02 10:39:57;;;;;;;13.50;7.25;;;9.90;40.10;;;;;;4968355;28;20055;-43
2022/03/02 10:42:29;;;;;;;;;;;10.00;39.70;;;;;;4968351;28;20055;-43
2022/03/02 10:45:19;;;;;;;12.30;6.47;;;10.00;39.90;;;;;;4968388;28;19933;-41
2022/03/02 10:48:12;;;;;;;14.23;6.80;;;10.10;39.00;;;;;;4962191;28;22133;-46
2022/03/02 10:50:52;;;;;;;13.63;7.05;;;10.10;39.20;;;;;;4968584;28;20050;-42
2022/03/02 10:53:30;;;;;;;14.15;6.72;;;10.20;39.70;;;;;;4965331;28;20522;-42
2022/03/02 10:56:19;;;;;;;18.85;6.47;;;10.20;39.40;;;;;;4970669;28;20074;-42
2022/03/02 10:58:51;;;;;;;10.95;5.93;;;10.30;38.70;;;;;;4959972;28;20054;-43
2022/03/02 11:01:19;;;;;;;12.10;7.13;;;10.30;39.20;;;;;;4960564;28;20055;-47
2022/03/02 11:03:50;;;;;;;10.48;5.75;;;10.30;39.50;;;;;;4952831;28;20055;-44
2022/03/02 11:06:22;;;;;;;11.77;6.78;;;10.30;39.30;;;;;;4968611;28;20492;-42
2022/03/02 11:08:51;;;;;;;12.50;6.38;;;10.40;38.60;;;;;;4963776;28;20046;-44
2022/03/02 11:11:26;;;;;;;13.55;6.72;;;10.40;38.20;;;;;;4959821;28;20420;-43
2022/03/02 11:13:56;;;;;;;16.42;7.05;;;10.40;38.00;;;;;;4958942;28;20063;-48
2022/03/02 11:16:25;;;;;;;10.10;6.22;;;10.50;37.60;;;;;;4962147;28;20059;-45
2022/03/02 11:18:53;;;;;;;11.05;6.05;;;10.50;37.20;;;;;;4960249;28;20062;-45
2022/03/02 11:21:30;;;;;;;9.75;6.03;;;10.60;37.00;;;;;;4961612;28;20066;-45
2022/03/02 11:24:04;;;;;;;11.07;6.45;;;10.60;37.20;;;;;;4958457;28;20051;-45
2022/03/02 11:26:36;;;;;;;11.88;6.53;;;10.70;37.40;;;;;;4960631;28;20105;-47
2022/03/02 11:29:10;;;;;;;12.65;6.20;;;10.70;37.60;;;;;;4960046;28;20054;-42
2022/03/02 11:31:42;;;;;;;11.52;6.75;;;10.70;36.90;;;;;;4961263;28;20070;-47
2022/03/02 11:34:12;;;;;;;11.50;6.07;;;10.70;36.40;;;;;;4965687;28;20058;-44
2022/03/02 11:36:42;;;;;;;16.35;8.48;;;10.80;36.50;;;;;;4966678;28;20504;-45
2022/03/02 11:39:10;;;;;;;20.33;9.10;;;10.80;36.60;;;;;;4966295;28;20062;-44
2022/03/02 11:41:41;;;;;;;12.27;6.70;;;10.90;36.50;;;;;;4967935;28;20062;-42
2022/03/02 11:44:28;;;;;;;12.00;6.43;;;10.90;36.70;;;;;;4965159;28;20061;-42
2022/03/02 11:46:56;;;;;;;12.18;6.75;;;10.90;35.80;;;;;;4967459;28;20058;-43
2022/03/02 11:49:39;;;;;;;10.68;6.30;;;11.00;36.60;;;;;;4962612;28;20043;-49
2022/03/02 11:52:08;;;;;;;16.08;6.53;;;11.00;36.30;;;;;;4967701;28;20065;-43
2022/03/02 11:54:56;;;;;;;10.70;6.00;;;11.10;36.30;;;;;;4965520;28;20054;-47
2022/03/02 11:57:29;;;;;;;10.73;5.82;;;11.10;35.50;;;;;;4964904;28;20411;-42
2022/03/02 12:00:09;;;;;;;10.55;6.00;;;11.10;35.80;;;;;;4966811;28;20055;-44
2022/03/02 12:02:43;;;;;;;11.63;6.38;;;11.20;35.40;;;;;;4966830;28;20503;-43
2022/03/02 12:05:11;;;;;;;;;;;11.20;35.30;;;;;;4967078;28;20054;-44
2022/03/02 12:07:40;;;;;;;9.30;5.97;;;11.30;35.90;;;;;;4965448;28;20007;-43
2022/03/02 12:10:23;;;;;;;12.65;5.60;;;11.30;35.90;;;;;;4967524;28;20066;-45
2022/03/02 12:12:53;;;;;;;10.95;6.25;;;11.30;35.20;;;;;;4963450;28;20595;-44
2022/03/02 12:15:22;;;;;;;9.68;5.85;;;11.30;35.50;;;;;;4965448;28;20051;-47
2022/03/02 12:17:51;;;;;;;10.32;6.80;;;11.40;35.30;;;;;;4966107;28;20973;-42
2022/03/02 12:20:21;;;;;;;11.30;5.80;;;11.40;35.40;;;;;;4965222;28;20483;-43
2022/03/02 12:22:50;;;;;;;10.18;5.65;;;11.40;35.00;;;;;;4965074;28;20058;-47
2022/03/02 12:25:21;;;;;;;10.20;5.90;;;11.40;35.00;;;;;;4961539;28;20415;-43
2022/03/02 12:27:58;;;;;;;8.20;5.50;;;11.40;34.60;;;;;;4962877;28;20054;-43
2022/03/02 12:30:28;;;;;;;14.13;6.57;;;11.50;34.60;;;;;;4967050;28;20423;-49
2022/03/02 12:32:56;;;;;;;13.50;6.25;;;11.50;34.50;;;;;;4964745;28;20055;-46
2022/03/02 12:35:25;;;;;;;11.32;5.97;;;11.60;34.30;;;;;;4964973;28;20058;-47
2022/03/02 12:37:56;;;;;;;9.52;5.75;;;11.60;34.30;;;;;;4966970;28;20062;-45
2022/03/02 12:40:26;;;;;;;8.88;5.80;;;11.60;34.40;;;;;;4967394;28;20403;-45
2022/03/02 12:42:55;;;;;;;10.00;5.30;;;11.70;34.20;;;;;;4965798;28;20625;-44
2022/03/02 12:45:24;;;;;;;9.43;5.47;;;11.70;34.20;;;;;;4962424;28;20058;-43
2022/03/02 12:47:52;;;;;;;9.73;6.03;;;11.80;34.30;;;;;;4963655;28;20065;-45
2022/03/02 12:50:20;;;;;;;10.45;5.90;;;11.80;34.50;;;;;;4961904;28;20069;-44
2022/03/02 12:52:49;;;;;;;8.80;5.38;;;11.90;34.50;;;;;;4958581;28;20059;-44
2022/03/02 12:55:17;;;;;;;11.05;5.80;;;11.90;34.10;;;;;;4963944;28;20066;-44
2022/03/02 12:57:46;;;;;;;13.48;5.43;;;12.00;34.60;;;;;;4964073;28;20510;-45
2022/03/02 13:00:17;;;;;;;9.65;4.72;;;12.00;34.60;;;;;;4963907;28;20066;-43